sensor_id;sensor_type;location;lat;lon;timestamp;pressure;altitude;pressure_sealevel;temperature;humidity
45621;BME280;31345;51.522;10.702;2023-05-27T00:01:43;100295.69;;;6.46;100.00
45621;BME280;31345;51.522;10.702;2023-05-27T00:04:10;100293.72;;;6.54;100.00
45621;BME280;31345;51.522;10.702;2023-05-27T00:06:42;100299.97;;;6.49;100.00
45621;BME280;31345;51.522;10.702;2023-05-27T00:09:15;100299.91;;;6.50;100.00
45621;BME280;31345;51.522;10.702;2023-05-27T00:11:44;100299.16;;;6.47;100.00
45621;BME280;31345;51.522;10.702;2023-05-27T00:14:16;100299.03;;;6.51;100.00
45621;BME280;31345;51.522;10.702;2023-05-27T00:16:51;100289.03;;;6.37;100.00
45621;BME280;31345;51.522;10.702;2023-05-27T00:19:19;100298.56;;;6.37;100.00
45621;BME280;31345;51.522;10.702;2023-05-27T00:21:51;100290.28;;;6.24;100.00
45621;BME280;31345;51.522;10.702;2023-05-27T00:24:19;100295.91;;;6.40;100.00
45621;BME280;31345;51.522;10.702;2023-05-27T00:26:49;100293.06;;;6.18;100.00
45621;BME280;31345;51.522;10.702;2023-05-27T00:29:16;100293.81;;;6.21;100.00
45621;BME280;31345;51.522;10.702;2023-05-27T00:31:44;100302.59;;;6.17;100.00
45621;BME280;31345;51.522;10.702;2023-05-27T00:34:17;100300.03;;;6.15;100.00
45621;BME280;31345;51.522;10.702;2023-05-27T00:36:44;100294.50;;;6.28;100.00
45621;BME280;31345;51.522;10.702;2023-05-27T00:39:17;100302.06;;;6.04;100.00
45621;BME280;31345;51.522;10.702;2023-05-27T00:41:50;100302.44;;;5.90;100.00
45621;BME280;31345;51.522;10.702;2023-05-27T00:44:18;100302.28;;;5.96;100.00
45621;BME280;31345;51.522;10.702;2023-05-27T00:46:50;100302.03;;;6.06;100.00
45621;BME280;31345;51.522;10.702;2023-05-27T00:49:18;100307.69;;;6.20;100.00
45621;BME280;31345;51.522;10.702;2023-05-27T00:51:51;100303.22;;;6.25;100.00
45621;BME280;31345;51.522;10.702;2023-05-27T00:54:20;100296.50;;;6.18;100.00
45621;BME280;31345;51.522;10.702;2023-05-27T00:56:54;100301.91;;;6.10;100.00
45621;BME280;31345;51.522;10.702;2023-05-27T00:59:27;100313.84;;;6.18;100.00
45621;BME280;31345;51.522;10.702;2023-05-27T01:01:55;100307.28;;;6.36;100.00
45621;BME280;31345;51.522;10.702;2023-05-27T01:04:27;100320.34;;;6.01;100.00
45621;BME280;31345;51.522;10.702;2023-05-27T01:07:08;100314.06;;;6.08;100.00
45621;BME280;31345;51.522;10.702;2023-05-27T01:09:40;100312.91;;;6.20;100.00
45621;BME280;31345;51.522;10.702;2023-05-27T01:12:25;100315.00;;;6.06;100.00
45621;BME280;31345;51.522;10.702;2023-05-27T01:15:00;100309.63;;;6.13;100.00
45621;BME280;31345;51.522;10.702;2023-05-27T01:17:34;100313.56;;;5.95;100.00
45621;BME280;31345;51.522;10.702;2023-05-27T01:20:09;100309.22;;;5.96;100.00
45621;BME280;31345;51.522;10.702;2023-05-27T01:22:44;100308.16;;;6.03;100.00
45621;BME280;31345;51.522;10.702;2023-05-27T01:25:17;100312.44;;;6.04;100.00
45621;BME280;31345;51.522;10.702;2023-05-27T01:27:45;100309.75;;;6.09;100.00
45621;BME280;31345;51.522;10.702;2023-05-27T01:30:18;100308.66;;;5.84;100.00
45621;BME280;31345;51.522;10.702;2023-05-27T01:32:55;100312.41;;;5.74;100.00
45621;BME280;31345;51.522;10.702;2023-05-27T01:35:40;100310.38;;;5.85;100.00
45621;BME280;31345;51.522;10.702;2023-05-27T01:38:18;100307.78;;;5.85;100.00
45621;BME280;31345;51.522;10.702;2023-05-27T01:40:47;100301.38;;;5.66;100.00
45621;BME280;31345;51.522;10.702;2023-05-27T01:43:22;100304.66;;;5.72;100.00
45621;BME280;31345;51.522;10.702;2023-05-27T01:45:50;100297.97;;;5.62;100.00
45621;BME280;31345;51.522;10.702;2023-05-27T01:48:18;100302.06;;;5.72;100.00
45621;BME280;31345;51.522;10.702;2023-05-27T01:50:51;100304.44;;;5.80;100.00
45621;BME280;31345;51.522;10.702;2023-05-27T01:53:25;100308.56;;;5.87;100.00
45621;BME280;31345;51.522;10.702;2023-05-27T01:55:57;100300.88;;;5.84;100.00
45621;BME280;31345;51.522;10.702;2023-05-27T01:58:30;100304.59;;;5.74;100.00
45621;BME280;31345;51.522;10.702;2023-05-27T02:00:57;100299.72;;;5.63;100.00
45621;BME280;31345;51.522;10.702;2023-05-27T02:03:30;100299.53;;;5.69;100.00
45621;BME280;31345;51.522;10.702;2023-05-27T02:05:57;100299.38;;;5.75;100.00
45621;BME280;31345;51.522;10.702;2023-05-27T02:08:32;100303.34;;;5.89;100.00
45621;BME280;31345;51.522;10.702;2023-05-27T02:11:00;100293.66;;;5.62;100.00
45621;BME280;31345;51.522;10.702;2023-05-27T02:13:35;100293.91;;;5.53;100.00
45621;BME280;31345;51.522;10.702;2023-05-27T02:16:08;100298.47;;;5.43;100.00
45621;BME280;31345;51.522;10.702;2023-05-27T02:18:41;100293.50;;;5.34;100.00
45621;BME280;31345;51.522;10.702;2023-05-27T02:21:13;100296.13;;;5.32;100.00
45621;BME280;31345;51.522;10.702;2023-05-27T02:23:47;100295.81;;;5.08;100.00
45621;BME280;31345;51.522;10.702;2023-05-27T02:26:19;100297.47;;;5.13;100.00
45621;BME280;31345;51.522;10.702;2023-05-27T02:28:48;100289.78;;;5.09;100.00
45621;BME280;31345;51.522;10.702;2023-05-27T02:31:21;100293.28;;;5.07;100.00
45621;BME280;31345;51.522;10.702;2023-05-27T02:33:53;100289.25;;;4.93;100.00
45621;BME280;31345;51.522;10.702;2023-05-27T02:36:21;100295.94;;;5.04;100.00
45621;BME280;31345;51.522;10.702;2023-05-27T02:38:56;100296.59;;;5.14;100.00
45621;BME280;31345;51.522;10.702;2023-05-27T02:41:24;100298.16;;;5.21;100.00
45621;BME280;31345;51.522;10.702;2023-05-27T02:43:52;100301.94;;;5.06;100.00
45621;BME280;31345;51.522;10.702;2023-05-27T02:46:24;100296.00;;;5.01;100.00
45621;BME280;31345;51.522;10.702;2023-05-27T02:48:52;100294.91;;;5.11;100.00
45621;BME280;31345;51.522;10.702;2023-05-27T02:51:24;100291.59;;;5.04;100.00
45621;BME280;31345;51.522;10.702;2023-05-27T02:53:58;100291.66;;;5.03;100.00
45621;BME280;31345;51.522;10.702;2023-05-27T02:56:31;100287.50;;;4.95;100.00
45621;BME280;31345;51.522;10.702;2023-05-27T02:58:58;100290.84;;;5.01;100.00
45621;BME280;31345;51.522;10.702;2023-05-27T03:01:31;100293.38;;;5.02;100.00
45621;BME280;31345;51.522;10.702;2023-05-27T03:04:03;100288.31;;;4.97;100.00
45621;BME280;31345;51.522;10.702;2023-05-27T03:06:36;100285.31;;;4.77;100.00
45621;BME280;31345;51.522;10.702;2023-05-27T03:09:10;100299.03;;;4.82;100.00
45621;BME280;31345;51.522;10.702;2023-05-27T03:11:37;100293.75;;;4.87;100.00
45621;BME280;31345;51.522;10.702;2023-05-27T03:14:10;100286.81;;;4.89;100.00
45621;BME280;31345;51.522;10.702;2023-05-27T03:16:42;100280.03;;;4.81;100.00
45621;BME280;31345;51.522;10.702;2023-05-27T03:19:15;100283.66;;;4.74;100.00
45621;BME280;31345;51.522;10.702;2023-05-27T03:21:47;100278.28;;;4.82;100.00
45621;BME280;31345;51.522;10.702;2023-05-27T03:24:21;100275.47;;;4.93;100.00
45621;BME280;31345;51.522;10.702;2023-05-27T03:26:54;100272.94;;;4.90;100.00
45621;BME280;31345;51.522;10.702;2023-05-27T03:29:27;100273.84;;;4.89;100.00
45621;BME280;31345;51.522;10.702;2023-05-27T03:31:59;100273.41;;;5.06;100.00
45621;BME280;31345;51.522;10.702;2023-05-27T03:34:32;100272.00;;;4.94;100.00
45621;BME280;31345;51.522;10.702;2023-05-27T03:37:05;100275.06;;;5.10;100.00
45621;BME280;31345;51.522;10.702;2023-05-27T03:39:54;100270.53;;;5.18;100.00
45621;BME280;31345;51.522;10.702;2023-05-27T03:42:26;100273.19;;;5.17;100.00
45621;BME280;31345;51.522;10.702;2023-05-27T03:44:59;100267.75;;;5.26;100.00
45621;BME280;31345;51.522;10.702;2023-05-27T03:47:33;100265.09;;;5.29;100.00
45621;BME280;31345;51.522;10.702;2023-05-27T03:50:07;100270.34;;;5.26;100.00
45621;BME280;31345;51.522;10.702;2023-05-27T03:52:40;100270.38;;;5.24;100.00
45621;BME280;31345;51.522;10.702;2023-05-27T03:55:15;100272.03;;;5.29;100.00
45621;BME280;31345;51.522;10.702;2023-05-27T03:57:47;100269.50;;;5.26;100.00
45621;BME280;31345;51.522;10.702;2023-05-27T04:00:16;100269.25;;;5.36;100.00
45621;BME280;31345;51.522;10.702;2023-05-27T04:02:51;100272.63;;;5.39;100.00
45621;BME280;31345;51.522;10.702;2023-05-27T04:05:20;100268.06;;;5.48;100.00
45621;BME280;31345;51.522;10.702;2023-05-27T04:07:52;100275.78;;;5.52;100.00
45621;BME280;31345;51.522;10.702;2023-05-27T04:10:26;100276.56;;;5.54;100.00
45621;BME280;31345;51.522;10.702;2023-05-27T04:13:00;100270.34;;;5.61;100.00
45621;BME280;31345;51.522;10.702;2023-05-27T04:15:33;100274.81;;;5.56;100.00
45621;BME280;31345;51.522;10.702;2023-05-27T04:18:06;100276.34;;;5.63;100.00
45621;BME280;31345;51.522;10.702;2023-05-27T04:20:36;100272.31;;;5.51;100.00
45621;BME280;31345;51.522;10.702;2023-05-27T04:23:11;100278.81;;;5.68;100.00
45621;BME280;31345;51.522;10.702;2023-05-27T04:25:45;100276.53;;;5.55;100.00
45621;BME280;31345;51.522;10.702;2023-05-27T04:28:14;100272.44;;;5.46;100.00
45621;BME280;31345;51.522;10.702;2023-05-27T04:30:50;100276.34;;;5.63;100.00
45621;BME280;31345;51.522;10.702;2023-05-27T04:33:33;100278.81;;;5.68;100.00
45621;BME280;31345;51.522;10.702;2023-05-27T04:36:07;100280.56;;;5.67;100.00
45621;BME280;31345;51.522;10.702;2023-05-27T04:41:45;100282.19;;;5.71;100.00
45621;BME280;31345;51.522;10.702;2023-05-27T04:44:38;100279.88;;;5.94;100.00
45621;BME280;31345;51.522;10.702;2023-05-27T04:47:07;100283.50;;;6.18;100.00
45621;BME280;31345;51.522;10.702;2023-05-27T04:49:41;100283.25;;;6.58;100.00
45621;BME280;31345;51.522;10.702;2023-05-27T04:52:15;100290.75;;;6.96;100.00
45621;BME280;31345;51.522;10.702;2023-05-27T04:54:52;100278.41;;;7.29;100.00
45621;BME280;31345;51.522;10.702;2023-05-27T04:57:39;100288.19;;;7.50;100.00
45621;BME280;31345;51.522;10.702;2023-05-27T05:00:16;100292.19;;;7.60;100.00
45621;BME280;31345;51.522;10.702;2023-05-27T05:02:55;100279.22;;;7.84;100.00
45621;BME280;31345;51.522;10.702;2023-05-27T05:05:28;100278.72;;;7.98;100.00
45621;BME280;31345;51.522;10.702;2023-05-27T05:08:01;100284.50;;;8.06;100.00
45621;BME280;31345;51.522;10.702;2023-05-27T05:10:34;100284.00;;;8.20;100.00
45621;BME280;31345;51.522;10.702;2023-05-27T05:13:10;100278.22;;;8.36;100.00
45621;BME280;31345;51.522;10.702;2023-05-27T05:15:43;100278.41;;;8.55;100.00
45621;BME280;31345;51.522;10.702;2023-05-27T05:18:16;100278.34;;;8.57;100.00
45621;BME280;31345;51.522;10.702;2023-05-27T05:20:49;100280.41;;;8.71;100.00
45621;BME280;31345;51.522;10.702;2023-05-27T05:23:27;100274.28;;;8.94;100.00
45621;BME280;31345;51.522;10.702;2023-05-27T05:25:55;100279.59;;;9.14;100.00
45621;BME280;31345;51.522;10.702;2023-05-27T05:28:31;100267.94;;;9.22;100.00
45621;BME280;31345;51.522;10.702;2023-05-27T05:31:03;100271.53;;;9.41;100.00
45621;BME280;31345;51.522;10.702;2023-05-27T05:33:31;100268.63;;;9.69;100.00
45621;BME280;31345;51.522;10.702;2023-05-27T05:36:04;100267.22;;;9.81;100.00
45621;BME280;31345;51.522;10.702;2023-05-27T05:38:50;100264.56;;;10.02;100.00
45621;BME280;31345;51.522;10.702;2023-05-27T05:41:22;100261.72;;;10.27;100.00
45621;BME280;31345;51.522;10.702;2023-05-27T05:43:57;100258.22;;;10.48;100.00
45621;BME280;31345;51.522;10.702;2023-05-27T05:46:29;100255.34;;;10.72;99.24
45621;BME280;31345;51.522;10.702;2023-05-27T05:49:03;100256.38;;;10.87;99.78
45621;BME280;31345;51.522;10.702;2023-05-27T05:51:43;100251.63;;;10.95;96.72
45621;BME280;31345;51.522;10.702;2023-05-27T05:54:16;100252.63;;;11.10;97.87
45621;BME280;31345;51.522;10.702;2023-05-27T05:56:48;100255.94;;;11.31;98.67
45621;BME280;31345;51.522;10.702;2023-05-27T05:59:22;100262.25;;;11.45;98.28
45621;BME280;31345;51.522;10.702;2023-05-27T06:01:55;100265.41;;;11.69;97.58
45621;BME280;31345;51.522;10.702;2023-05-27T06:04:30;100262.91;;;11.84;97.22
45621;BME280;31345;51.522;10.702;2023-05-27T06:07:03;100266.22;;;12.05;98.48
45621;BME280;31345;51.522;10.702;2023-05-27T06:09:50;100262.16;;;12.16;94.16
45621;BME280;31345;51.522;10.702;2023-05-27T06:12:23;100258.88;;;12.28;94.39
45621;BME280;31345;51.522;10.702;2023-05-27T06:14:52;100264.81;;;12.48;93.16
45621;BME280;31345;51.522;10.702;2023-05-27T06:17:30;100260.91;;;12.55;90.24
45621;BME280;31345;51.522;10.702;2023-05-27T06:20:03;100258.72;;;12.48;89.15
45621;BME280;31345;51.522;10.702;2023-05-27T06:22:32;100268.34;;;12.63;91.47
45621;BME280;31345;51.522;10.702;2023-05-27T06:25:23;100267.09;;;12.87;91.41
45621;BME280;31345;51.522;10.702;2023-05-27T06:28:05;100256.38;;;13.06;88.66
45621;BME280;31345;51.522;10.702;2023-05-27T06:30:39;100264.22;;;13.22;87.97
45621;BME280;31345;51.522;10.702;2023-05-27T06:33:15;100273.59;;;13.26;87.06
45621;BME280;31345;51.522;10.702;2023-05-27T06:35:48;100269.56;;;13.35;86.61
45621;BME280;31345;51.522;10.702;2023-05-27T06:38:20;100273.53;;;13.28;89.91
45621;BME280;31345;51.522;10.702;2023-05-27T06:40:51;100266.94;;;13.35;87.22
45621;BME280;31345;51.522;10.702;2023-05-27T06:43:23;100258.34;;;13.47;84.38
45621;BME280;31345;51.522;10.702;2023-05-27T06:46:05;100264.13;;;13.69;84.50
45621;BME280;31345;51.522;10.702;2023-05-27T06:49:00;100259.91;;;13.95;81.93
45621;BME280;31345;51.522;10.702;2023-05-27T06:51:29;100264.44;;;14.08;83.36
45621;BME280;31345;51.522;10.702;2023-05-27T06:54:02;100270.25;;;14.13;83.80
45621;BME280;31345;51.522;10.702;2023-05-27T06:56:36;100271.94;;;14.14;81.51
45621;BME280;31345;51.522;10.702;2023-05-27T06:59:27;100263.59;;;14.22;85.13
45621;BME280;31345;51.522;10.702;2023-05-27T07:01:56;100270.81;;;14.33;85.88
45621;BME280;31345;51.522;10.702;2023-05-27T07:04:25;100259.44;;;14.32;82.56
45621;BME280;31345;51.522;10.702;2023-05-27T07:07:00;100261.72;;;14.51;83.40
45621;BME280;31345;51.522;10.702;2023-05-27T07:09:28;100270.00;;;14.60;81.37
45621;BME280;31345;51.522;10.702;2023-05-27T07:11:56;100269.94;;;14.74;82.19
45621;BME280;31345;51.522;10.702;2023-05-27T07:15:01;100267.66;;;14.83;82.25
45621;BME280;31345;51.522;10.702;2023-05-27T07:17:35;100262.19;;;15.13;79.43
45621;BME280;31345;51.522;10.702;2023-05-27T07:20:04;100262.75;;;15.19;78.68
45621;BME280;31345;51.522;10.702;2023-05-27T07:22:37;100255.34;;;15.11;75.94
45621;BME280;31345;51.522;10.702;2023-05-27T07:25:10;100259.69;;;15.12;77.78
45621;BME280;31345;51.522;10.702;2023-05-27T07:27:43;100252.22;;;14.91;76.68
45621;BME280;31345;51.522;10.702;2023-05-27T07:30:16;100252.63;;;15.12;78.99
45621;BME280;31345;51.522;10.702;2023-05-27T07:33:03;100250.44;;;15.32;77.66
45621;BME280;31345;51.522;10.702;2023-05-27T07:35:36;100244.47;;;15.69;76.17
45621;BME280;31345;51.522;10.702;2023-05-27T07:38:09;100238.44;;;15.93;77.05
45621;BME280;31345;51.522;10.702;2023-05-27T07:40:42;100237.59;;;15.92;74.56
45621;BME280;31345;51.522;10.702;2023-05-27T07:43:14;100244.66;;;15.66;73.52
45621;BME280;31345;51.522;10.702;2023-05-27T07:45:48;100235.47;;;15.46;72.51
45621;BME280;31345;51.522;10.702;2023-05-27T07:48:22;100243.41;;;15.72;73.42
45621;BME280;31345;51.522;10.702;2023-05-27T07:50:55;100240.47;;;15.76;72.82
45621;BME280;31345;51.522;10.702;2023-05-27T07:53:27;100233.72;;;15.72;73.49
45621;BME280;31345;51.522;10.702;2023-05-27T07:55:55;100231.91;;;15.60;73.11
45621;BME280;31345;51.522;10.702;2023-05-27T07:58:27;100231.16;;;15.84;72.88
45621;BME280;31345;51.522;10.702;2023-05-27T08:01:20;100230.06;;;15.99;73.23
45621;BME280;31345;51.522;10.702;2023-05-27T08:03:58;100224.78;;;16.12;73.21
45621;BME280;31345;51.522;10.702;2023-05-27T08:07:06;100215.84;;;16.02;70.91
45621;BME280;31345;51.522;10.702;2023-05-27T08:10:08;100217.84;;;15.98;73.25
45621;BME280;31345;51.522;10.702;2023-05-27T08:13:09;100200.34;;;15.97;70.71
45621;BME280;31345;51.522;10.702;2023-05-27T08:16:08;100206.78;;;15.93;73.91
45621;BME280;31345;51.522;10.702;2023-05-27T08:18:48;100211.75;;;15.85;73.72
45621;BME280;31345;51.522;10.702;2023-05-27T08:21:35;100204.25;;;16.04;72.99
45621;BME280;31345;51.522;10.702;2023-05-27T08:24:15;100192.06;;;16.15;73.04
45621;BME280;31345;51.522;10.702;2023-05-27T08:27:00;100199.47;;;16.10;70.35
45621;BME280;31345;51.522;10.702;2023-05-27T08:29:47;100191.94;;;16.29;71.41
45621;BME280;31345;51.522;10.702;2023-05-27T08:32:29;100187.50;;;16.54;71.00
45621;BME280;31345;51.522;10.702;2023-05-27T08:35:02;100189.47;;;16.64;70.64
45621;BME280;31345;51.522;10.702;2023-05-27T08:37:36;100190.53;;;16.85;70.77
45621;BME280;31345;51.522;10.702;2023-05-27T08:40:13;100188.81;;;16.73;69.21
45621;BME280;31345;51.522;10.702;2023-05-27T08:42:52;100186.69;;;16.90;69.27
45621;BME280;31345;51.522;10.702;2023-05-27T08:45:24;100179.38;;;16.82;68.05
45621;BME280;31345;51.522;10.702;2023-05-27T08:47:58;100176.53;;;17.08;72.17
45621;BME280;31345;51.522;10.702;2023-05-27T08:50:38;100175.81;;;16.70;66.29
45621;BME280;31345;51.522;10.702;2023-05-27T08:53:13;100180.09;;;16.35;69.26
45621;BME280;31345;51.522;10.702;2023-05-27T08:55:50;100175.13;;;16.79;70.65
45621;BME280;31345;51.522;10.702;2023-05-27T08:58:24;100167.63;;;16.97;64.63
45621;BME280;31345;51.522;10.702;2023-05-27T09:01:00;100163.16;;;16.87;65.13
45621;BME280;31345;51.522;10.702;2023-05-27T09:03:28;100175.13;;;16.79;68.72
45621;BME280;31345;51.522;10.702;2023-05-27T09:06:02;100166.13;;;17.18;67.46
45621;BME280;31345;51.522;10.702;2023-05-27T09:08:37;100167.22;;;17.38;65.29
45621;BME280;31345;51.522;10.702;2023-05-27T09:11:19;100165.88;;;17.44;70.50
45621;BME280;31345;51.522;10.702;2023-05-27T09:13:53;100165.81;;;17.57;67.91
45621;BME280;31345;51.522;10.702;2023-05-27T09:16:26;100156.22;;;17.56;65.04
45621;BME280;31345;51.522;10.702;2023-05-27T09:18:58;100163.41;;;17.54;65.97
45621;BME280;31345;51.522;10.702;2023-05-27T09:21:30;100158.25;;;17.64;64.51
45621;BME280;31345;51.522;10.702;2023-05-27T09:24:04;100153.69;;;17.54;64.23
45621;BME280;31345;51.522;10.702;2023-05-27T09:26:37;100154.28;;;17.46;66.84
45621;BME280;31345;51.522;10.702;2023-05-27T09:29:10;100161.38;;;17.57;70.13
45621;BME280;31345;51.522;10.702;2023-05-27T09:31:38;100158.97;;;17.54;67.04
45621;BME280;31345;51.522;10.702;2023-05-27T09:34:11;100155.59;;;17.75;65.00
45621;BME280;31345;51.522;10.702;2023-05-27T09:36:43;100155.47;;;17.88;63.02
45621;BME280;31345;51.522;10.702;2023-05-27T09:39:19;100154.50;;;17.78;65.47
45621;BME280;31345;51.522;10.702;2023-05-27T09:41:54;100147.41;;;17.90;67.90
45621;BME280;31345;51.522;10.702;2023-05-27T09:44:28;100150.53;;;17.83;65.01
45621;BME280;31345;51.522;10.702;2023-05-27T09:47:02;100145.19;;;18.18;64.64
45621;BME280;31345;51.522;10.702;2023-05-27T09:49:37;100146.38;;;18.25;66.15
45621;BME280;31345;51.522;10.702;2023-05-27T09:52:11;100144.66;;;18.24;68.18
45621;BME280;31345;51.522;10.702;2023-05-27T09:54:46;100135.94;;;18.56;63.94
45621;BME280;31345;51.522;10.702;2023-05-27T09:57:20;100127.72;;;18.59;63.05
45621;BME280;31345;51.522;10.702;2023-05-27T09:59:54;100138.31;;;18.48;63.65
45621;BME280;31345;51.522;10.702;2023-05-27T10:02:27;100127.63;;;18.82;63.69
45621;BME280;31345;51.522;10.702;2023-05-27T10:05:03;100122.31;;;19.03;59.33
45621;BME280;31345;51.522;10.702;2023-05-27T10:07:40;100129.59;;;18.90;62.95
45621;BME280;31345;51.522;10.702;2023-05-27T10:10:17;100124.69;;;18.64;62.24
45621;BME280;31345;51.522;10.702;2023-05-27T10:12:53;100125.78;;;19.04;64.63
45621;BME280;31345;51.522;10.702;2023-05-27T10:15:28;100133.84;;;19.24;63.89
45621;BME280;31345;51.522;10.702;2023-05-27T10:18:02;100122.72;;;19.30;62.09
45621;BME280;31345;51.522;10.702;2023-05-27T10:20:38;100118.09;;;19.22;62.84
45621;BME280;31345;51.522;10.702;2023-05-27T10:23:10;100120.59;;;19.24;62.94
45621;BME280;31345;51.522;10.702;2023-05-27T10:25:47;100112.22;;;18.97;65.44
45621;BME280;31345;51.522;10.702;2023-05-27T10:28:26;100115.72;;;18.98;61.06
45621;BME280;31345;51.522;10.702;2023-05-27T10:31:04;100113.97;;;19.08;62.82
45621;BME280;31345;51.522;10.702;2023-05-27T10:33:34;100106.63;;;19.22;61.71
45621;BME280;31345;51.522;10.702;2023-05-27T10:36:08;100106.88;;;19.50;61.54
45621;BME280;31345;51.522;10.702;2023-05-27T10:38:42;100102.25;;;19.83;62.69
45621;BME280;31345;51.522;10.702;2023-05-27T10:41:16;100095.97;;;19.84;62.86
45621;BME280;31345;51.522;10.702;2023-05-27T10:43:54;100088.06;;;19.53;58.61
45621;BME280;31345;51.522;10.702;2023-05-27T10:49:23;100088.53;;;19.68;58.92
45621;BME280;31345;51.522;10.702;2023-05-27T10:51:56;100083.94;;;19.70;60.85
45621;BME280;31345;51.522;10.702;2023-05-27T10:54:30;100079.00;;;19.55;57.54
45621;BME280;31345;51.522;10.702;2023-05-27T10:56:59;100073.28;;;19.60;57.06
45621;BME280;31345;51.522;10.702;2023-05-27T10:59:39;100078.38;;;19.83;61.66
45621;BME280;31345;51.522;10.702;2023-05-27T11:02:12;100072.41;;;19.50;62.95
45621;BME280;31345;51.522;10.702;2023-05-27T11:04:40;100076.41;;;19.75;63.19
45621;BME280;31345;51.522;10.702;2023-05-27T11:07:08;100072.66;;;19.78;62.95
45621;BME280;31345;51.522;10.702;2023-05-27T11:09:44;100057.16;;;20.03;61.60
45621;BME280;31345;51.522;10.702;2023-05-27T11:12:20;100059.94;;;19.81;61.01
45621;BME280;31345;51.522;10.702;2023-05-27T11:14:54;100060.94;;;20.00;61.25
45621;BME280;31345;51.522;10.702;2023-05-27T11:17:26;100050.84;;;19.84;58.24
45621;BME280;31345;51.522;10.702;2023-05-27T11:19:55;100046.16;;;20.08;64.03
45621;BME280;31345;51.522;10.702;2023-05-27T11:22:22;100047.09;;;20.26;61.15
45621;BME280;31345;51.522;10.702;2023-05-27T11:24:56;100039.28;;;20.44;61.16
45621;BME280;31345;51.522;10.702;2023-05-27T11:27:34;100029.50;;;20.05;56.72
45621;BME280;31345;51.522;10.702;2023-05-27T11:30:09;100032.00;;;20.27;58.66
45621;BME280;31345;51.522;10.702;2023-05-27T11:32:42;100032.53;;;20.70;60.39
45621;BME280;31345;51.522;10.702;2023-05-27T11:35:16;100024.56;;;20.40;57.06
45621;BME280;31345;51.522;10.702;2023-05-27T11:37:49;100023.03;;;20.67;62.05
45621;BME280;31345;51.522;10.702;2023-05-27T11:40:23;100023.47;;;20.53;55.98
45621;BME280;31345;51.522;10.702;2023-05-27T11:43:00;100021.78;;;20.42;58.31
45621;BME280;31345;51.522;10.702;2023-05-27T11:45:35;100016.94;;;20.27;59.73
45621;BME280;31345;51.522;10.702;2023-05-27T11:48:08;100018.41;;;20.69;60.49
45621;BME280;31345;51.522;10.702;2023-05-27T11:50:42;100020.75;;;20.82;59.79
45621;BME280;31345;51.522;10.702;2023-05-27T11:53:15;100013.47;;;20.84;56.75
45621;BME280;31345;51.522;10.702;2023-05-27T11:55:48;100012.16;;;20.99;51.69
45621;BME280;31345;51.522;10.702;2023-05-27T11:58:23;100001.91;;;21.04;50.38
45621;BME280;31345;51.522;10.702;2023-05-27T12:00:56;100008.06;;;21.32;54.45
45621;BME280;31345;51.522;10.702;2023-05-27T12:03:23;100006.00;;;21.26;58.42
45621;BME280;31345;51.522;10.702;2023-05-27T12:05:57;100001.00;;;20.95;52.43
45621;BME280;31345;51.522;10.702;2023-05-27T12:08:30;99996.25;;;21.17;57.60
45621;BME280;31345;51.522;10.702;2023-05-27T12:11:03;99997.16;;;21.35;57.06
45621;BME280;31345;51.522;10.702;2023-05-27T12:13:39;99990.53;;;21.86;58.00
45621;BME280;31345;51.522;10.702;2023-05-27T12:16:12;99989.06;;;21.55;52.80
45621;BME280;31345;51.522;10.702;2023-05-27T12:18:45;99982.41;;;21.41;52.35
45621;BME280;31345;51.522;10.702;2023-05-27T12:21:18;99982.44;;;21.13;57.09
45621;BME280;31345;51.522;10.702;2023-05-27T12:23:51;99979.59;;;21.43;57.56
45621;BME280;31345;51.522;10.702;2023-05-27T12:26:23;99982.69;;;21.38;53.90
45621;BME280;31345;51.522;10.702;2023-05-27T12:28:58;99970.00;;;21.32;54.99
45621;BME280;31345;51.522;10.702;2023-05-27T12:31:30;99967.16;;;21.61;58.86
45621;BME280;31345;51.522;10.702;2023-05-27T12:34:03;99949.25;;;21.64;53.17
45621;BME280;31345;51.522;10.702;2023-05-27T12:36:36;99963.47;;;21.44;55.87
45621;BME280;31345;51.522;10.702;2023-05-27T12:39:09;99952.41;;;21.49;55.66
45621;BME280;31345;51.522;10.702;2023-05-27T12:41:41;99946.41;;;21.47;57.85
45621;BME280;31345;51.522;10.702;2023-05-27T12:44:18;99952.72;;;21.82;58.40
45621;BME280;31345;51.522;10.702;2023-05-27T12:46:49;99941.69;;;21.59;49.19
45621;BME280;31345;51.522;10.702;2023-05-27T12:49:21;99955.28;;;21.92;56.23
45621;BME280;31345;51.522;10.702;2023-05-27T12:51:54;99943.75;;;21.65;55.74
45621;BME280;31345;51.522;10.702;2023-05-27T12:54:26;99938.41;;;21.47;55.12
45621;BME280;31345;51.522;10.702;2023-05-27T12:56:59;99937.44;;;21.66;53.67
45621;BME280;31345;51.522;10.702;2023-05-27T12:59:35;99932.25;;;21.83;55.51
45621;BME280;31345;51.522;10.702;2023-05-27T13:07:39;99933.03;;;21.75;57.64
45621;BME280;31345;51.522;10.702;2023-05-27T13:10:32;99919.81;;;21.83;54.16
45621;BME280;31345;51.522;10.702;2023-05-27T13:13:05;99921.53;;;22.19;54.78
45621;BME280;31345;51.522;10.702;2023-05-27T13:15:38;99916.34;;;22.18;51.95
45621;BME280;31345;51.522;10.702;2023-05-27T13:18:11;99916.97;;;21.85;54.18
45621;BME280;31345;51.522;10.702;2023-05-27T13:20:43;99910.31;;;21.63;52.58
45621;BME280;31345;51.522;10.702;2023-05-27T13:23:16;99912.13;;;22.33;57.82
45621;BME280;31345;51.522;10.702;2023-05-27T13:25:49;99921.53;;;21.93;49.53
45621;BME280;31345;51.522;10.702;2023-05-27T13:28:21;99907.94;;;21.78;52.08